Weather at Michael Pfister Airport

Public forecast

Using degrees Fahrenheit for public forecast. Weather courtesy of forecast.io.

Closest aviation weather report (METAR) to Michael Pfister Airport

Closest report is Marshall County Airport, 15.5 nm (28.8 km) NNW. Retrieved 2021/08/02 11:15 UTC (10 minutes ago):

KC75 021115Z AUTO 00000KT 5SM CLR 12/12 A3017 RMK AO2 T01230120 PWINO

Closest aviation forecast (TAF) to Michael Pfister Airport

Closest forecast is General Wayne A. Downing Peoria International Airport, 21.0 nm (38.9 km) WSW. Retrieved 2021/08/02 06:22 UTC (5 hours ago):

TAF KPIA 020520Z 0206/0306 06004KT P6SM SCT045